aviador You're here:

ZBTJ Decoded Metar

TIANJIN in CHINA
Report Time2017-03-30 18:30:00
UTC Time2017-03-30 18:38:26
Flight Rules mvfr MVFR
Wind350° at 8 kt
W.Decomp.*RWY 34: 7.7 kt HW 2.2 kt RCW
W.Rank350° ranks 8
Current wind is below 350° avg. (9.3)
Visibility5000 m
Phenomena:Haze
Clouds:N/A
Expected CloudBase > 2,000 ft AGL from Temp-Dew spread
CeilingNone
Temp07°C (ISA -8)
Dew Point02°C (71% RH)
AAT2.5°C
QNH1028 hPa
Density Alt-1,362 ft
Elevation10 ft
Report Wrong Elevation
Raw Report
METAR ZBTJ 301830Z 35004MPS 5000 HZ NSC 07/02 Q1028 NOSIG=

Extra information for ZBTJ:More info

Metar Taf Metar & Taf Last 4 Metars F.Rules Stats Wind Profile Meteogram Temp Stats Airport Information Weather charts Add Link Nearby VenuesMetar ALERT Operation Metar Decoded Social comments